Time;durP1;ratioP1;P1;durP2;ratioP2;P2;SDS_P1;SDS_P2;PMS_P1;PMS_P2;Temp;Humidity;BMP_temperature;BMP_pressure;BME280_temperature;BME280_humidity;BME280_pressure;Samples;Min_cycle;Max_cycle;Signal;HPM_P1;HPM_P2
2022/07/23 00:01:21;;;;;;;5.03;4.63;;;20.00;99.90;;;;;;5029820;28;21055;-51
2022/07/23 00:03:48;;;;;;;6.90;5.80;;;20.00;99.90;;;;;;5029688;28;20551;-48
2022/07/23 00:06:15;;;;;;;5.97;5.37;;;20.00;99.90;;;;;;5029908;28;20515;-53
2022/07/23 00:08:43;;;;;;;6.03;5.50;;;20.00;99.90;;;;;;5029787;28;20504;-48
2022/07/23 00:11:11;;;;;;;7.93;5.47;;;19.80;99.90;;;;;;5029908;28;20476;-48
2022/07/23 00:13:38;;;;;;;5.47;4.97;;;19.50;99.90;;;;;;5030336;28;20846;-50
2022/07/23 00:16:05;;;;;;;6.47;5.70;;;19.60;99.90;;;;;;5029724;28;20438;-49
2022/07/23 00:18:33;;;;;;;6.47;5.87;;;19.70;99.90;;;;;;5029622;28;20430;-48
2022/07/23 00:21:00;;;;;;;6.00;5.40;;;19.80;99.90;;;;;;5029259;28;21097;-48
2022/07/23 00:23:27;;;;;;;6.40;5.00;;;19.80;99.90;;;;;;5029474;28;20526;-48
2022/07/23 00:25:55;;;;;;;5.87;5.27;;;19.90;99.90;;;;;;5029603;28;20529;-48
2022/07/23 00:28:22;;;;;;;5.90;5.30;;;19.90;99.90;;;;;;5029645;28;20477;-48
2022/07/23 00:30:49;;;;;;;5.63;4.50;;;20.00;99.90;;;;;;5029480;28;20532;-48
2022/07/23 00:33:16;;;;;;;4.57;4.00;;;20.00;99.90;;;;;;5029705;28;20446;-48
2022/07/23 00:35:43;;;;;;;5.17;4.67;;;20.00;99.90;;;;;;5029613;28;20923;-49
2022/07/23 00:38:11;;;;;;;5.27;4.77;;;20.00;99.90;;;;;;5029424;28;20912;-48
2022/07/23 00:40:39;;;;;;;6.03;5.23;;;20.10;99.90;;;;;;5029278;28;20473;-48
2022/07/23 00:43:08;;;;;;;5.00;4.60;;;20.00;99.90;;;;;;5029469;28;20470;-48
2022/07/23 00:45:35;;;;;;;5.70;4.43;;;20.00;99.90;;;;;;5029593;28;20997;-49
2022/07/23 00:48:02;;;;;;;4.53;4.13;;;19.90;99.90;;;;;;5029513;28;20470;-49
2022/07/23 00:50:29;;;;;;;5.40;4.53;;;19.90;99.90;;;;;;5029209;28;20466;-49
2022/07/23 00:52:56;;;;;;;4.37;3.97;;;20.00;99.90;;;;;;5029410;28;20943;-50
2022/07/23 00:55:23;;;;;;;5.30;4.73;;;19.90;99.90;;;;;;5029297;28;20491;-48
2022/07/23 00:57:51;;;;;;;5.00;4.50;;;19.90;99.90;;;;;;5029383;28;20450;-53
2022/07/23 01:00:20;;;;;;;5.47;4.97;;;19.90;99.90;;;;;;5029089;28;20979;-48
2022/07/23 01:02:47;;;;;;;5.80;4.80;;;19.90;99.90;;;;;;5029550;28;20477;-51
2022/07/23 01:05:14;;;;;;;6.47;4.90;;;19.80;99.90;;;;;;5029448;28;20482;-48
2022/07/23 01:07:41;;;;;;;5.70;5.07;;;19.60;99.90;;;;;;5029120;28;20916;-48
2022/07/23 01:12:50;;;;;;;5.13;4.37;;;19.50;99.90;;;;;;5028225;28;20431;-48
2022/07/23 01:15:17;;;;;;;5.20;4.43;;;19.50;99.90;;;;;;5030715;28;20442;-48
2022/07/23 01:17:45;;;;;;;5.53;5.03;;;19.60;99.90;;;;;;5033034;28;20511;-50
2022/07/23 01:20:12;;;;;;;7.73;4.90;;;19.60;99.90;;;;;;5032492;28;20470;-49
2022/07/23 01:22:40;;;;;;;4.67;4.13;;;19.50;99.90;;;;;;5032563;28;20492;-49
2022/07/23 01:25:08;;;;;;;4.80;4.07;;;19.50;99.90;;;;;;5032397;28;20528;-48
2022/07/23 01:27:35;;;;;;;4.43;4.03;;;19.50;99.90;;;;;;5032544;28;20437;-48
2022/07/23 01:30:05;;;;;;;6.40;4.30;;;19.50;99.90;;;;;;5032348;28;20477;-51
2022/07/23 01:32:32;;;;;;;6.47;4.97;;;19.50;99.90;;;;;;5032676;28;20462;-49
2022/07/23 01:34:58;;;;;;;5.03;4.57;;;19.50;99.90;;;;;;5032607;28;20446;-51
2022/07/23 01:37:25;;;;;;;5.87;5.30;;;19.30;99.90;;;;;;5032475;28;20473;-49
2022/07/23 01:39:54;;;;;;;5.13;4.63;;;19.00;99.90;;;;;;5032109;28;20552;-48
2022/07/23 01:42:21;;;;;;;5.97;4.70;;;19.00;99.90;;;;;;5032220;28;20934;-52
2022/07/23 01:44:48;;;;;;;5.43;4.90;;;19.00;99.90;;;;;;5032055;28;20498;-50
2022/07/23 01:47:15;;;;;;;6.27;4.63;;;19.20;99.90;;;;;;5032293;28;20434;-48
2022/07/23 01:49:42;;;;;;;5.47;4.90;;;19.30;99.90;;;;;;5032002;28;20481;-50
2022/07/23 01:52:10;;;;;;;4.97;4.47;;;19.30;99.90;;;;;;5032405;28;20492;-48
2022/07/23 01:54:39;;;;;;;5.60;4.13;;;19.40;99.90;;;;;;5032170;28;20930;-48
2022/07/23 01:57:08;;;;;;;5.03;4.53;;;19.40;99.90;;;;;;5032175;28;20504;-49
2022/07/23 01:59:36;;;;;;;7.13;4.60;;;19.50;99.90;;;;;;5031738;28;20504;-48
2022/07/23 02:02:05;;;;;;;4.80;4.27;;;19.50;99.90;;;;;;5032079;28;20446;-49
2022/07/23 02:04:35;;;;;;;5.83;4.70;;;19.50;99.90;;;;;;5031835;28;20501;-48
2022/07/23 02:07:02;;;;;;;5.13;4.63;;;19.60;99.90;;;;;;5031839;28;20438;-48
2022/07/23 02:09:29;;;;;;;5.70;4.67;;;19.60;99.90;;;;;;5031380;28;20990;-51
2022/07/23 02:11:57;;;;;;;6.30;5.70;;;19.60;99.90;;;;;;5031863;28;20562;-48
2022/07/23 02:14:25;;;;;;;4.80;4.37;;;19.70;99.90;;;;;;5031732;28;20426;-48
2022/07/23 02:16:52;;;;;;;5.20;4.30;;;19.60;99.90;;;;;;5031704;28;20478;-48
2022/07/23 02:19:19;;;;;;;5.97;5.47;;;19.50;99.90;;;;;;5031416;28;20450;-51
2022/07/23 02:21:46;;;;;;;7.53;4.93;;;19.30;99.90;;;;;;5031380;28;20553;-48
2022/07/23 02:24:13;;;;;;;5.37;4.87;;;19.30;99.90;;;;;;5031528;28;20532;-48
2022/07/23 02:26:41;;;;;;;5.97;4.57;;;19.30;99.90;;;;;;5030808;28;20707;-48
2022/07/23 02:29:08;;;;;;;5.37;4.80;;;19.40;99.90;;;;;;5031197;28;20811;-51
2022/07/23 02:31:36;;;;;;;5.27;4.77;;;19.50;99.90;;;;;;5031358;28;20870;-48
2022/07/23 02:34:04;;;;;;;5.10;4.60;;;19.50;99.90;;;;;;5031513;28;20921;-48
2022/07/23 02:36:31;;;;;;;5.87;5.10;;;19.60;99.90;;;;;;5031317;28;20496;-50
2022/07/23 02:38:58;;;;;;;5.83;4.77;;;19.60;99.90;;;;;;5030918;28;20434;-49
2022/07/23 02:41:25;;;;;;;5.60;4.57;;;19.50;99.90;;;;;;5031243;28;21041;-48
2022/07/23 02:43:52;;;;;;;4.70;4.27;;;19.50;99.90;;;;;;5031167;28;20466;-48
2022/07/23 02:46:19;;;;;;;5.53;4.97;;;19.50;99.90;;;;;;5031594;28;20450;-48
2022/07/23 02:48:48;;;;;;;5.73;4.30;;;19.50;99.90;;;;;;5030853;28;20450;-46
2022/07/23 02:51:15;;;;;;;4.80;4.40;;;19.50;99.90;;;;;;5031134;28;20466;-49
2022/07/23 02:53:42;;;;;;;5.77;5.27;;;19.50;99.90;;;;;;5030980;28;20493;-48
2022/07/23 02:56:09;;;;;;;5.20;4.70;;;19.50;99.90;;;;;;5031036;28;20446;-48
2022/07/23 02:58:36;;;;;;;6.13;5.53;;;19.50;99.90;;;;;;5030882;28;20454;-49
2022/07/23 03:01:03;;;;;;;7.27;4.63;;;19.50;99.90;;;;;;5030710;28;20474;-48
2022/07/23 03:03:30;;;;;;;6.07;5.47;;;19.50;99.90;;;;;;5030731;28;20447;-48
2022/07/23 03:05:59;;;;;;;4.73;4.30;;;19.60;99.90;;;;;;5030782;28;20505;-48
2022/07/23 03:08:26;;;;;;;9.00;4.80;;;19.60;99.90;;;;;;5030705;28;20986;-48
2022/07/23 03:10:53;;;;;;;5.10;4.63;;;19.60;99.90;;;;;;5030527;28;20669;-49
2022/07/23 03:13:20;;;;;;;9.67;6.20;;;19.60;99.90;;;;;;5030672;28;20500;-48
2022/07/23 03:15:47;;;;;;;6.97;4.97;;;19.60;99.90;;;;;;5031049;28;20923;-49
2022/07/23 03:18:14;;;;;;;4.93;4.33;;;19.60;99.90;;;;;;5030326;28;20489;-48
2022/07/23 03:20:41;;;;;;;5.47;4.97;;;19.60;99.90;;;;;;5030225;28;20470;-51
2022/07/23 03:23:09;;;;;;;6.63;5.50;;;19.60;99.90;;;;;;5030461;28;20500;-48
2022/07/23 03:25:36;;;;;;;4.77;4.37;;;19.70;99.90;;;;;;5030189;28;20481;-48
2022/07/23 03:28:04;;;;;;;6.97;5.20;;;19.70;99.90;;;;;;5030375;28;20455;-52
2022/07/23 03:30:31;;;;;;;7.80;5.53;;;19.70;99.90;;;;;;5031376;28;20546;-48
2022/07/23 03:32:58;;;;;;;7.30;5.50;;;19.60;99.90;;;;;;5030157;28;20825;-50
2022/07/23 03:35:25;;;;;;;5.73;5.03;;;19.50;99.90;;;;;;5030282;28;20939;-48
2022/07/23 03:37:52;;;;;;;5.43;4.93;;;19.50;99.90;;;;;;5029998;28;20450;-48
2022/07/23 03:40:20;;;;;;;6.40;5.13;;;19.60;99.90;;;;;;5029806;28;20465;-48
2022/07/23 03:42:47;;;;;;;5.60;5.10;;;19.50;99.90;;;;;;5030136;28;20477;-48
2022/07/23 03:45:14;;;;;;;5.50;4.80;;;19.60;99.90;;;;;;5030020;28;20466;-48
2022/07/23 03:47:41;;;;;;;5.23;4.73;;;19.60;99.90;;;;;;5030327;28;20529;-51
2022/07/23 03:50:09;;;;;;;5.80;4.53;;;19.60;99.90;;;;;;5029902;28;20489;-48
2022/07/23 03:52:36;;;;;;;7.07;5.83;;;19.60;99.90;;;;;;5030085;28;20450;-49
2022/07/23 03:55:04;;;;;;;5.03;4.50;;;19.60;99.90;;;;;;5029961;28;21014;-48
2022/07/23 03:57:32;;;;;;;6.53;5.40;;;19.50;99.90;;;;;;5030122;28;20459;-48
2022/07/23 03:59:59;;;;;;;7.23;5.50;;;19.40;99.90;;;;;;5029716;28;20470;-48
2022/07/23 04:02:26;;;;;;;6.00;4.80;;;19.30;99.90;;;;;;5029941;28;20454;-49
2022/07/23 04:04:53;;;;;;;7.80;5.30;;;19.20;99.90;;;;;;5029792;28;21048;-48
2022/07/23 04:07:21;;;;;;;6.37;5.77;;;19.20;99.90;;;;;;5029904;28;20852;-49
2022/07/23 04:09:48;;;;;;;6.20;5.67;;;19.30;99.90;;;;;;5029396;28;20478;-50
2022/07/23 04:12:15;;;;;;;6.73;6.13;;;19.30;99.90;;;;;;5029902;28;20445;-49
2022/07/23 04:14:44;;;;;;;6.60;5.93;;;19.30;99.90;;;;;;5029821;28;20447;-50
2022/07/23 04:17:11;;;;;;;5.80;5.30;;;19.40;99.90;;;;;;5029572;28;20987;-48
2022/07/23 04:19:40;;;;;;;5.63;5.07;;;19.50;99.90;;;;;;5029413;28;20496;-49
2022/07/23 04:22:07;;;;;;;5.60;5.10;;;19.50;99.90;;;;;;5029143;28;20505;-50
2022/07/23 04:24:34;;;;;;;5.73;5.20;;;19.50;99.90;;;;;;5029528;28;21038;-48
2022/07/23 04:27:02;;;;;;;7.13;5.30;;;19.50;99.90;;;;;;5029780;28;20445;-49
2022/07/23 04:29:29;;;;;;;7.07;6.27;;;19.50;99.90;;;;;;5029304;28;20453;-48
2022/07/23 04:31:57;;;;;;;5.97;5.40;;;19.50;99.90;;;;;;5029724;28;20450;-50
2022/07/23 04:34:26;;;;;;;5.40;4.90;;;19.60;99.90;;;;;;5029536;28;20496;-50
2022/07/23 04:36:53;;;;;;;7.97;5.57;;;19.50;99.90;;;;;;5029474;28;20430;-48
2022/07/23 04:39:20;;;;;;;6.90;6.20;;;19.50;99.90;;;;;;5029329;28;20545;-51
2022/07/23 04:41:47;;;;;;;6.40;5.73;;;19.40;99.90;;;;;;5029662;28;20450;-48
2022/07/23 04:44:14;;;;;;;7.30;5.20;;;19.50;99.90;;;;;;5029518;28;20511;-49
2022/07/23 04:46:41;;;;;;;5.47;5.03;;;19.50;99.90;;;;;;5029553;28;20447;-48
2022/07/23 04:49:10;;;;;;;6.53;5.80;;;19.50;99.90;;;;;;5029261;28;20876;-52
2022/07/23 04:51:37;;;;;;;6.03;5.43;;;19.50;99.90;;;;;;5033090;28;20528;-50
2022/07/23 04:54:04;;;;;;;5.50;5.00;;;19.50;99.90;;;;;;5033311;28;21022;-48
2022/07/23 04:56:31;;;;;;;7.60;5.93;;;19.60;99.90;;;;;;5033299;28;21009;-51
2022/07/23 04:58:58;;;;;;;7.07;5.80;;;19.50;99.90;;;;;;5033011;28;20935;-50
2022/07/23 05:01:25;;;;;;;5.47;4.80;;;19.50;99.90;;;;;;5032954;28;20450;-48
2022/07/23 05:03:52;;;;;;;6.80;6.03;;;19.50;99.90;;;;;;5033003;28;20492;-50
2022/07/23 05:06:20;;;;;;;5.93;5.30;;;19.50;99.90;;;;;;5032874;28;20539;-48
2022/07/23 05:08:47;;;;;;;7.27;5.37;;;19.50;99.90;;;;;;5032807;28;20948;-48
2022/07/23 05:11:14;;;;;;;6.87;5.63;;;19.60;99.90;;;;;;5032914;28;20884;-48
2022/07/23 05:13:41;;;;;;;6.67;5.73;;;19.50;99.90;;;;;;5032994;28;20442;-51
2022/07/23 05:16:08;;;;;;;8.40;5.97;;;19.50;99.90;;;;;;5032900;28;20437;-52
2022/07/23 05:18:35;;;;;;;6.07;5.47;;;19.50;99.90;;;;;;5032810;28;20446;-50
2022/07/23 05:21:02;;;;;;;7.43;5.97;;;19.50;99.90;;;;;;5032204;28;20874;-51
2022/07/23 05:23:31;;;;;;;6.47;5.63;;;19.30;99.90;;;;;;5032691;28;20504;-50
2022/07/23 05:25:58;;;;;;;6.43;5.80;;;19.30;99.90;;;;;;5032470;28;20548;-48
2022/07/23 05:28:25;;;;;;;6.70;6.10;;;19.30;99.90;;;;;;5032623;28;20591;-48
2022/07/23 05:30:52;;;;;;;6.43;5.70;;;19.20;99.90;;;;;;5032388;28;21047;-48
2022/07/23 05:33:20;;;;;;;8.97;6.47;;;19.10;99.90;;;;;;5032526;28;20449;-49
2022/07/23 05:35:47;;;;;;;6.77;5.77;;;19.00;99.90;;;;;;5032519;28;20504;-48
2022/07/23 05:38:14;;;;;;;7.13;6.43;;;18.90;99.90;;;;;;5032391;28;20752;-48
2022/07/23 05:40:42;;;;;;;8.13;6.53;;;19.00;99.90;;;;;;5032161;28;20513;-48
2022/07/23 05:43:09;;;;;;;6.97;5.77;;;19.10;99.90;;;;;;5032472;28;20504;-48
2022/07/23 05:45:36;;;;;;;6.10;5.50;;;19.20;99.90;;;;;;5032204;28;20974;-50
2022/07/23 05:48:04;;;;;;;8.00;5.33;;;19.20;99.90;;;;;;5032692;28;20450;-48
2022/07/23 05:50:31;;;;;;;8.00;5.93;;;19.20;99.90;;;;;;5031899;28;20811;-49
2022/07/23 05:52:58;;;;;;;5.13;4.60;;;19.30;99.90;;;;;;5032183;28;20440;-48
2022/07/23 05:55:25;;;;;;;4.17;3.77;;;19.10;99.90;;;;;;5032299;28;20434;-48
2022/07/23 05:57:53;;;;;;;3.93;3.13;;;19.20;99.90;;;;;;5032354;28;20993;-48
2022/07/23 06:00:20;;;;;;;5.93;4.60;;;19.30;99.90;;;;;;5031697;28;20497;-49
2022/07/23 06:02:47;;;;;;;5.87;5.20;;;19.40;99.90;;;;;;5032087;28;20446;-48
2022/07/23 06:05:14;;;;;;;5.17;4.67;;;19.50;99.90;;;;;;5031799;28;20473;-50
2022/07/23 06:07:41;;;;;;;5.70;4.30;;;19.50;99.90;;;;;;5031879;28;21013;-50
2022/07/23 06:10:09;;;;;;;4.83;4.10;;;19.40;99.90;;;;;;5031617;28;20482;-50
2022/07/23 06:12:37;;;;;;;5.20;3.80;;;19.40;99.90;;;;;;5032128;28;20430;-48
2022/07/23 06:15:06;;;;;;;4.10;3.70;;;19.50;99.90;;;;;;5031833;28;20442;-50
2022/07/23 06:17:33;;;;;;;5.10;3.87;;;19.50;99.90;;;;;;5031730;28;21017;-49
2022/07/23 06:20:00;;;;;;;6.30;4.77;;;19.50;99.90;;;;;;5031370;28;21041;-50
2022/07/23 06:22:27;;;;;;;4.37;3.97;;;19.30;99.90;;;;;;5030950;28;20588;-49
2022/07/23 06:24:54;;;;;;;4.30;3.90;;;19.30;99.90;;;;;;5031482;28;20474;-48
2022/07/23 06:27:21;;;;;;;3.77;2.60;;;19.30;99.90;;;;;;5031603;28;20446;-48
2022/07/23 06:29:48;;;;;;;3.37;2.93;;;19.30;99.90;;;;;;5031077;28;20490;-48
2022/07/23 06:32:17;;;;;;;4.70;3.33;;;19.30;99.90;;;;;;5031470;28;20446;-50
2022/07/23 06:34:44;;;;;;;3.60;3.30;;;19.40;99.90;;;;;;5031662;28;20462;-48
2022/07/23 06:37:11;;;;;;;3.87;2.87;;;19.40;99.90;;;;;;5031425;28;20504;-49
2022/07/23 06:39:38;;;;;;;2.83;2.50;;;19.50;99.90;;;;;;5031099;28;20454;-48
2022/07/23 06:42:05;;;;;;;4.70;2.97;;;19.40;99.90;;;;;;5031174;28;20439;-49
2022/07/23 06:44:32;;;;;;;3.20;2.80;;;19.30;99.90;;;;;;5031147;28;20496;-50
2022/07/23 06:46:59;;;;;;;3.37;2.33;;;19.30;99.90;;;;;;5031461;28;20442;-48
2022/07/23 06:49:27;;;;;;;4.07;3.00;;;19.30;99.90;;;;;;5030628;28;20433;-51
2022/07/23 06:51:54;;;;;;;2.73;2.47;;;19.30;99.90;;;;;;5031152;28;20970;-49
2022/07/23 06:54:21;;;;;;;3.77;3.20;;;19.40;99.90;;;;;;5031080;28;20874;-50
2022/07/23 06:56:48;;;;;;;3.20;2.80;;;19.40;99.90;;;;;;5031036;28;20569;-48
2022/07/23 06:59:15;;;;;;;3.30;2.97;;;19.50;99.90;;;;;;5030946;28;20435;-51
2022/07/23 07:01:42;;;;;;;3.53;2.40;;;19.40;99.90;;;;;;5030884;28;20462;-48
2022/07/23 07:04:09;;;;;;;4.97;2.47;;;19.50;99.90;;;;;;5030890;28;20454;-48
2022/07/23 07:06:38;;;;;;;3.77;3.47;;;19.60;99.90;;;;;;5030727;28;20504;-51
2022/07/23 07:09:05;;;;;;;3.47;2.53;;;19.70;99.90;;;;;;5030564;28;20943;-50
2022/07/23 07:11:32;;;;;;;3.93;2.30;;;19.80;99.90;;;;;;5030759;28;20980;-48
2022/07/23 07:13:59;;;;;;;2.43;1.97;;;19.80;99.90;;;;;;5030053;28;20458;-50
2022/07/23 07:16:26;;;;;;;3.03;2.63;;;19.70;99.90;;;;;;5030200;28;20846;-50
2022/07/23 07:18:53;;;;;;;3.90;2.90;;;19.70;99.90;;;;;;5030252;28;20438;-44
2022/07/23 07:21:20;;;;;;;5.10;3.30;;;19.70;99.90;;;;;;5029483;28;20524;-49
2022/07/23 07:23:48;;;;;;;4.43;3.27;;;19.70;99.90;;;;;;5030126;28;20528;-48
2022/07/23 07:26:15;;;;;;;5.30;3.70;;;19.70;99.90;;;;;;5030555;28;20473;-48
2022/07/23 07:28:42;;;;;;;4.00;2.80;;;19.60;99.90;;;;;;5047669;28;20449;-48
2022/07/23 07:31:09;;;;;;;2.80;2.23;;;19.50;99.90;;;;;;5050013;28;20469;-49
2022/07/23 07:33:36;;;;;;;3.40;2.90;;;19.50;99.90;;;;;;5041249;28;20442;-48
2022/07/23 07:36:03;;;;;;;2.50;2.10;;;19.60;99.90;;;;;;5031128;28;20454;-49
2022/07/23 07:38:30;;;;;;;2.40;1.93;;;19.70;99.90;;;;;;5032237;28;20473;-48
2022/07/23 07:40:59;;;;;;;2.90;2.60;;;19.80;99.90;;;;;;5049867;28;20465;-49
2022/07/23 07:43:26;;;;;;;3.57;2.50;;;19.90;99.90;;;;;;5050525;28;20433;-49
2022/07/23 07:45:53;;;;;;;3.20;2.90;;;19.90;99.90;;;;;;5049597;28;20476;-50
2022/07/23 07:48:20;;;;;;;2.70;2.10;;;20.00;99.90;;;;;;5049858;28;20507;-49
2022/07/23 07:50:47;;;;;;;2.47;2.20;;;20.10;99.90;;;;;;5049809;28;20468;-50
2022/07/23 07:53:14;;;;;;;9.00;3.57;;;20.10;99.90;;;;;;5050019;28;20503;-51
2022/07/23 07:55:41;;;;;;;5.87;3.10;;;20.20;99.90;;;;;;5050409;28;20500;-50
2022/07/23 07:58:09;;;;;;;4.30;2.97;;;20.20;99.90;;;;;;5049884;28;20430;-48
2022/07/23 08:00:36;;;;;;;7.33;3.73;;;20.30;99.90;;;;;;5049646;28;20750;-52
2022/07/23 08:03:03;;;;;;;4.10;3.70;;;20.40;99.90;;;;;;5049782;28;20481;-49
2022/07/23 08:05:31;;;;;;;5.37;3.00;;;20.40;99.90;;;;;;5049698;28;20462;-50
2022/07/23 08:08:00;;;;;;;5.53;3.47;;;20.50;99.90;;;;;;5049738;28;20429;-49
2022/07/23 08:10:28;;;;;;;3.87;2.80;;;20.60;99.90;;;;;;5049942;28;20522;-48
2022/07/23 08:12:57;;;;;;;6.10;3.50;;;20.70;99.90;;;;;;5049518;28;20449;-50
2022/07/23 08:15:27;;;;;;;4.37;3.40;;;20.80;99.90;;;;;;5049544;28;20918;-49
2022/07/23 08:17:54;;;;;;;6.00;3.70;;;20.90;99.90;;;;;;5049652;28;20477;-51
2022/07/23 08:20:23;;;;;;;4.03;3.20;;;21.00;99.90;;;;;;5049004;28;20511;-49
2022/07/23 08:22:52;;;;;;;6.77;3.70;;;21.30;99.90;;;;;;5049451;28;20432;-49
2022/07/23 08:25:22;;;;;;;6.00;3.63;;;21.50;99.90;;;;;;5051151;28;20492;-48
2022/07/23 08:27:50;;;;;;;5.53;3.30;;;21.70;99.90;;;;;;5053840;28;20993;-46
2022/07/23 08:30:17;;;;;;;3.70;3.40;;;21.80;99.90;;;;;;5053187;28;20563;-48
2022/07/23 08:32:57;;;;;;;3.80;3.27;;;21.60;99.90;;;;;;5053593;28;20457;-51
2022/07/23 08:35:26;;;;;;;5.03;3.00;;;21.70;99.90;;;;;;5053664;28;20434;-48
2022/07/23 08:37:54;;;;;;;5.00;3.73;;;21.60;99.90;;;;;;5044364;28;20481;-48
2022/07/23 08:40:21;;;;;;;3.13;2.83;;;21.70;99.90;;;;;;5033248;28;20485;-52
2022/07/23 08:42:50;;;;;;;3.60;2.80;;;21.70;99.90;;;;;;5033658;28;20862;-48
2022/07/23 08:45:18;;;;;;;3.70;2.70;;;21.70;99.90;;;;;;5033197;28;20441;-49
2022/07/23 08:47:48;;;;;;;3.37;3.07;;;21.60;99.90;;;;;;5033136;28;20457;-50
2022/07/23 08:50:17;;;;;;;3.93;2.90;;;21.50;99.90;;;;;;5033179;28;20466;-51
2022/07/23 08:52:44;;;;;;;3.13;2.80;;;21.50;99.90;;;;;;5033291;28;20462;-50
2022/07/23 08:55:11;;;;;;;6.10;3.43;;;21.50;99.90;;;;;;5033285;28;20504;-50
2022/07/23 08:57:38;;;;;;;5.03;3.30;;;21.50;99.90;;;;;;5033263;28;20512;-50
2022/07/23 09:00:07;;;;;;;5.67;2.70;;;21.50;99.90;;;;;;5032901;28;20474;-50
2022/07/23 09:02:40;;;;;;;4.13;3.13;;;21.50;99.90;;;;;;5032854;28;20843;-49
2022/07/23 09:05:08;;;;;;;3.73;2.73;;;21.60;99.90;;;;;;5033177;28;20450;-50
2022/07/23 09:07:36;;;;;;;3.23;2.93;;;21.70;99.90;;;;;;5032782;28;20497;-50
2022/07/23 09:10:09;;;;;;;4.73;2.70;;;21.90;99.90;;;;;;5032874;28;20552;-49
2022/07/23 09:12:36;;;;;;;2.90;2.60;;;22.00;99.90;;;;;;5033153;28;20426;-51
2022/07/23 09:15:09;;;;;;;5.07;2.83;;;22.00;99.90;;;;;;5033130;28;20469;-50
2022/07/23 09:17:41;;;;;;;3.50;3.20;;;22.00;99.90;;;;;;5032871;28;20803;-50
2022/07/23 09:20:13;;;;;;;3.00;2.70;;;22.00;99.90;;;;;;5032275;28;20462;-49
2022/07/23 09:22:46;;;;;;;4.03;2.50;;;22.00;99.90;;;;;;5032455;28;20454;-51
2022/07/23 09:25:14;;;;;;;3.50;2.87;;;22.00;99.90;;;;;;5032825;28;20553;-51
2022/07/23 09:27:53;;;;;;;4.03;2.93;;;22.00;99.90;;;;;;5031200;28;20520;-49
2022/07/23 09:30:22;;;;;;;4.30;2.90;;;22.00;99.90;;;;;;5048748;22;21587;-47
2022/07/23 09:33:06;;;;;;;3.60;2.93;;;22.00;99.90;;;;;;5032633;28;20454;-48
2022/07/23 09:35:49;;;;;;;3.50;2.80;;;22.00;99.90;;;;;;5032222;28;20553;-47
2022/07/23 09:38:17;;;;;;;3.30;3.00;;;22.00;99.90;;;;;;5030985;28;20480;-47
2022/07/23 09:40:45;;;;;;;3.80;2.90;;;22.00;99.90;;;;;;5032085;28;20470;-49
2022/07/23 09:43:13;;;;;;;2.60;2.40;;;22.00;99.90;;;;;;5031982;28;20862;-46
2022/07/23 09:45:40;;;;;;;3.40;2.70;;;21.90;99.90;;;;;;5031754;28;20781;-46
2022/07/23 09:48:15;;;;;;;3.67;2.80;;;21.90;99.90;;;;;;5031887;28;20434;-47
2022/07/23 09:50:43;;;;;;;5.23;3.90;;;21.90;99.90;;;;;;5031768;28;20468;-46
2022/07/23 09:53:10;;;;;;;4.00;3.60;;;21.90;99.90;;;;;;5032017;28;20454;-49
2022/07/23 09:55:39;;;;;;;4.57;3.80;;;22.00;99.90;;;;;;5031912;28;20434;-48
2022/07/23 09:58:09;;;;;;;3.10;2.80;;;21.90;99.90;;;;;;5031744;28;20441;-49
2022/07/23 10:00:37;;;;;;;3.40;3.10;;;22.00;99.90;;;;;;5031489;28;20786;-49
2022/07/23 10:03:06;;;;;;;5.23;3.83;;;22.20;99.90;;;;;;5032122;28;20492;-46
2022/07/23 10:05:35;;;;;;;4.33;3.93;;;22.30;99.90;;;;;;5032090;28;20450;-46
2022/07/23 10:08:03;;;;;;;4.37;3.40;;;22.50;99.90;;;;;;5031803;28;20801;-46
2022/07/23 10:10:32;;;;;;;3.40;3.10;;;22.50;99.90;;;;;;5032486;28;20862;-49
2022/07/23 10:15:45;;;;;;;5.20;3.67;;;22.50;99.90;;;;;;5043134;28;20432;-47
2022/07/23 10:18:13;;;;;;;3.03;2.40;;;22.60;99.90;;;;;;5051540;28;20822;-46
2022/07/23 10:20:41;;;;;;;3.13;2.40;;;22.60;99.90;;;;;;5034654;28;21080;-46
2022/07/23 10:23:15;;;;;;;3.33;3.03;;;22.70;99.90;;;;;;5035872;28;20430;-49
2022/07/23 10:25:49;;;;;;;4.37;3.20;;;22.80;99.90;;;;;;5011655;28;20931;-46
2022/07/23 10:28:49;;;;;;;4.60;3.13;;;23.00;99.90;;;;;;5011376;28;20906;-48
2022/07/23 10:31:27;;;;;;;3.07;2.47;;;23.00;99.90;;;;;;5010157;28;20483;-47
2022/07/23 10:34:12;;;;;;;3.40;2.90;;;23.00;99.90;;;;;;5041630;28;20441;-48
2022/07/23 10:36:45;;;;;;;3.60;3.07;;;22.80;99.90;;;;;;5043705;28;20425;-47
2022/07/23 10:39:18;;;;;;;6.93;4.53;;;22.80;99.90;;;;;;5034582;28;20489;-49
2022/07/23 10:41:45;;;;;;;4.20;3.37;;;22.90;99.90;;;;;;5031413;28;20486;-46
2022/07/23 10:44:15;;;;;;;3.50;3.20;;;23.00;99.90;;;;;;5030935;28;20474;-47
2022/07/23 10:47:11;;;;;;;3.30;2.97;;;23.00;99.90;;;;;;5031114;28;20469;-46
2022/07/23 10:49:39;;;;;;;3.80;3.43;;;23.00;99.90;;;;;;5030492;28;20449;-45
2022/07/23 10:52:23;;;;;;;4.83;3.67;;;23.00;99.90;;;;;;5030981;28;20451;-46
2022/07/23 10:54:52;;;;;;;4.60;3.00;;;23.00;99.90;;;;;;5031179;28;20423;-47
2022/07/23 10:57:21;;;;;;;4.03;3.63;;;23.10;99.90;;;;;;5031164;28;20450;-48
2022/07/23 11:00:21;;;;;;;3.90;3.53;;;23.30;99.90;;;;;;5030851;28;20462;-48
2022/07/23 11:02:50;;;;;;;3.13;2.50;;;23.30;99.90;;;;;;5031189;28;20984;-48
2022/07/23 11:05:19;;;;;;;3.47;2.97;;;23.50;99.90;;;;;;5031051;28;20430;-46
2022/07/23 11:08:14;;;;;;;3.27;2.97;;;23.60;99.90;;;;;;5030834;28;20470;-48
2022/07/23 11:10:43;;;;;;;4.00;3.50;;;23.70;99.90;;;;;;5030689;28;20468;-48
2022/07/23 11:13:31;;;;;;;3.77;3.37;;;23.90;99.90;;;;;;5031005;28;20465;-50
2022/07/23 11:16:20;;;;;;;6.30;2.83;;;24.00;99.90;;;;;;5030989;28;20434;-48
2022/07/23 11:19:08;;;;;;;3.10;2.80;;;24.20;99.90;;;;;;5030551;28;20839;-46
2022/07/23 11:21:49;;;;;;;3.03;2.73;;;24.30;99.90;;;;;;5030723;28;20533;-49
2022/07/23 11:24:18;;;;;;;4.20;3.10;;;24.30;99.90;;;;;;5030966;28;20447;-46
2022/07/23 11:27:04;;;;;;;3.40;3.10;;;24.30;99.90;;;;;;5030546;28;21014;-46
2022/07/23 11:29:48;;;;;;;3.20;2.83;;;24.30;99.90;;;;;;5030719;28;20484;-52
2022/07/23 11:32:42;;;;;;;2.83;2.53;;;24.30;99.90;;;;;;5030543;28;20470;-49
2022/07/23 11:35:23;;;;;;;3.23;2.53;;;24.30;99.90;;;;;;5030807;28;20879;-46
2022/07/23 11:37:53;;;;;;;4.07;2.73;;;24.30;99.90;;;;;;5030750;28;20465;-47
2022/07/23 11:40:21;;;;;;;2.60;2.40;;;24.40;99.90;;;;;;5030487;28;20486;-46
2022/07/23 11:42:57;;;;;;;2.90;2.50;;;24.40;99.90;;;;;;5030408;28;20434;-48
2022/07/23 11:45:26;;;;;;;2.97;2.73;;;24.50;99.90;;;;;;5030527;28;20465;-51
2022/07/23 11:47:54;;;;;;;2.90;2.30;;;24.40;99.90;;;;;;5030238;28;20811;-47
2022/07/23 11:50:24;;;;;;;3.43;2.20;;;24.40;99.90;;;;;;5030193;28;20468;-48
2022/07/23 11:52:51;;;;;;;2.90;2.33;;;24.50;99.90;;;;;;5030378;28;20474;-46
2022/07/23 11:55:19;;;;;;;2.80;2.50;;;24.50;99.90;;;;;;5030354;28;20477;-48
2022/07/23 11:57:46;;;;;;;4.10;2.53;;;24.60;99.90;;;;;;5030145;28;21020;-46
2022/07/23 12:00:15;;;;;;;4.20;3.10;;;24.60;99.90;;;;;;5031360;28;20459;-50
2022/07/23 12:02:44;;;;;;;4.33;2.43;;;24.60;99.90;;;;;;5009931;28;20526;-46
2022/07/23 12:05:14;;;;;;;3.30;2.73;;;24.70;99.90;;;;;;5009112;28;20836;-48
2022/07/23 12:07:44;;;;;;;3.33;2.40;;;24.80;99.90;;;;;;5009966;28;20597;-50
2022/07/23 12:10:14;;;;;;;4.20;3.80;;;24.90;99.90;;;;;;5009895;28;22127;-46
2022/07/23 12:12:44;;;;;;;3.30;3.00;;;24.90;99.90;;;;;;5010921;28;20507;-48
2022/07/23 12:15:12;;;;;;;10.10;3.73;;;25.00;99.90;;;;;;5010207;28;20967;-48
2022/07/23 12:17:41;;;;;;;3.60;2.90;;;25.00;99.90;;;;;;5009912;28;20442;-46
2022/07/23 12:20:12;;;;;;;3.70;2.93;;;25.00;99.90;;;;;;5009553;28;20509;-48
2022/07/23 12:22:42;;;;;;;3.80;3.40;;;25.00;99.90;;;;;;5009752;28;20430;-46
2022/07/23 12:25:12;;;;;;;5.20;3.83;;;25.00;99.90;;;;;;5009846;28;20804;-47
2022/07/23 12:27:39;;;;;;;4.40;3.93;;;24.90;99.90;;;;;;5010161;28;20475;-48
2022/07/23 12:30:17;;;;;;;3.80;3.30;;;25.00;99.90;;;;;;5009560;28;20451;-47
2022/07/23 12:32:46;;;;;;;4.27;3.87;;;25.00;99.90;;;;;;5010502;28;20582;-47
2022/07/23 12:35:13;;;;;;;3.80;3.47;;;25.00;99.90;;;;;;5009926;28;20506;-49
2022/07/23 12:37:43;;;;;;;3.70;2.97;;;25.00;99.90;;;;;;5009898;28;20454;-47
2022/07/23 12:40:28;;;;;;;3.20;2.63;;;25.10;99.90;;;;;;5009581;28;20801;-46
2022/07/23 12:42:58;;;;;;;3.90;2.97;;;25.10;99.90;;;;;;5010095;28;20478;-50
2022/07/23 12:45:26;;;;;;;3.67;2.90;;;25.10;99.90;;;;;;5009872;28;20513;-46
2022/07/23 12:48:05;;;;;;;4.07;3.13;;;25.10;99.90;;;;;;5009702;28;20537;-46
2022/07/23 12:50:38;;;;;;;3.80;3.40;;;25.10;99.90;;;;;;5009426;28;20754;-49
2022/07/23 12:53:08;;;;;;;5.17;3.90;;;25.10;99.90;;;;;;5009831;28;20458;-47
2022/07/23 12:55:36;;;;;;;3.10;2.80;;;25.10;99.90;;;;;;5009996;28;20451;-46
2022/07/23 12:58:08;;;;;;;7.80;3.67;;;25.00;99.90;;;;;;5009717;28;20435;-49
2022/07/23 13:00:58;;;;;;;3.53;2.97;;;25.00;99.90;;;;;;5009551;28;20471;-49
2022/07/23 13:03:28;;;;;;;5.00;3.27;;;25.00;99.90;;;;;;5009820;28;20442;-47